Weather observations for the past three days for
Pratt Municipal
Imperial (Metric)
Date Time (cdt) Wind (mph) Vis. (mi.) Weather Sky Cond. Temperature (ºF) Relative Humidity Wind Chill (°F) Heat Index (°F) Pressure Precipitation (in)
Air Dwpt 6 hour altimeter (in) sea level (mb) 1 hr 3 hr 6 hr
Max. Min.
04 03:15 S 10 10.00 Fair CLR 62.6 40.1 44% 29.71 0.0
04 02:55 S 12 10.00 Fair CLR 63.3 40.1 43% 29.71 0.0
04 02:35 SW 12 10.00 Fair CLR 64.4 39.6 40% 29.71 0.0
04 02:15 S 13 10.00 Fair CLR 65.5 39.2 38% 29.72 0.0
04 01:55 S 14 10.00 Fair CLR 65.7 39 38% 29.73 0.0
04 01:35 S 13 10.00 Fair CLR 65.5 38.7 37% 29.73 0.0
04 01:15 S 13 10.00 Fair CLR 66.4 38.5 36% 29.73 0.0
04 00:55 S 14 10.00 Fair CLR 67.3 38.1 81.3 67.3 34% 29.73 0.0
04 00:35 S 15 10.00 Fair CLR 68 37.8 33% 29.74 0.0
04 00:15 S 14 10.00 Fair CLR 68.2 37.6 33% 29.74 0.0
03 23:55 S 15 10.00 Fair CLR 68.9 37.4 32% 29.74 0.0
03 23:35 S 15 10.00 Fair CLR 69.8 36.7 30% 29.74 0.0
03 23:15 S 14 10.00 Fair CLR 68.9 36.5 30% 29.75 0.0
03 22:55 S 13 10.00 Fair CLR 70 35.8 29% 29.75 0.0
03 22:35 S 14 10.00 Fair CLR 70.7 35.6 28% 29.75 0.0
03 22:15 S 15 10.00 Fair CLR 71.4 35.2 27% 29.75 0.0
03 21:55 S 15 10.00 Fair CLR 71.8 35.2 26% 29.74 0.0
03 21:35 S 15 10.00 Fair CLR 72.1 34.9 26% 29.74 0.0
03 21:15 S 13 10.00 Fair CLR 72.5 34.9 25% 29.74 0.0
03 20:55 S 10 10.00 Fair CLR 71.1 35.8 28% 29.74 0.0
03 20:35 S 10 10.00 Fair CLR 71.6 35.8 27% 29.74 0.0
03 20:15 S 9 10.00 Fair CLR 72.1 36.5 27% 29.74 0.0
03 19:55 S 10 10.00 Fair CLR 74.1 36.9 26% 29.74 0.0
03 19:35 S 9 10.00 Fair CLR 77.2 34.9 22% 77 29.75 0.0
03 19:15 S 12 10.00 Fair CLR 79.5 32.2 18% 78 29.76 0.0
03 18:55 SW 17 G 22 10.00 Fair CLR 81.1 31.3 86.5 81.1 16% 79 29.77 0.0
03 18:35 SW 18 10.00 Fair CLR 82.6 30.4 15% 80 29.77 0.0
03 18:15 SW 23 G 26 10.00 Fair and Breezy CLR 83.3 30.7 15% 81 29.78 0.0
03 17:55 SW 24 G 30 10.00 Fair and Breezy CLR 83.8 30.2 14% 81 29.78 0.0
03 17:35 SW 22 10.00 Fair and Breezy CLR 84.4 29.5 14% 81 29.78 0.0
03 17:15 SW 21 G 29 10.00 Fair and Breezy CLR 83.5 28.8 14% 81 29.79 0.0
03 16:55 SW 22 G 30 10.00 Fair and Breezy CLR 84.4 26.8 12% 81 29.8 0.0
03 16:35 SW 23 G 30 10.00 Fair and Breezy CLR 85.6 30.2 13% 82 29.8 0.0
03 16:15 SW 24 G 29 10.00 Fair and Breezy CLR 85.5 28.2 12% 82 29.82 0.0
03 15:55 SW 23 G 37 10.00 Fair and Breezy CLR 85.5 25.5 11% 82 29.83 0.0
03 15:35 SW 23 G 29 10.00 Fair and Breezy CLR 85.5 27 12% 82 29.85 0.0
03 15:15 SW 18 G 30 10.00 Fair CLR 85.3 27.9 12% 82 29.86 0.0
03 14:55 SW 22 G 29 10.00 Fair and Breezy CLR 84.9 27.7 12% 82 29.86 0.0
03 14:35 SW 23 G 30 10.00 Fair and Breezy CLR 85.3 29.5 13% 82 29.87 0.0
03 14:15 SW 17 G 28 10.00 Fair CLR 84.9 29.5 13% 82 29.87 0.0
03 13:35 SW 18 G 29 10.00 Fair CLR 83.7 30.9 15% 81 29.9 0.0
03 13:15 SW 21 G 28 10.00 Fair and Breezy CLR 83.1 30 15% 80 29.92 0.0
03 12:55 SW 24 G 28 10.00 Fair and Breezy CLR 82.2 30 82.2 48.2 15% 80 29.93 0.0
03 12:35 SW 23 G 30 10.00 Fair and Breezy CLR 81.7 28.9 15% 79 29.93 0.0
03 12:15 SW 22 G 30 10.00 Fair and Breezy CLR 81.1 27.5 14% 79 29.95 0.0
03 11:55 SW 22 G 30 10.00 Fair and Breezy CLR 80.8 27.5 14% 79 29.95 0.0
03 11:35 SW 22 G 30 10.00 Fair and Breezy CLR 81 27 14% 79 29.96 0.0
03 11:15 SW 24 G 29 10.00 Fair and Breezy CLR 80.6 26.8 14% 79 29.96 0.0
03 10:55 SW 22 10.00 Fair and Breezy CLR 80.2 30.7 16% 79 29.96 0.0
03 10:35 W 17 10.00 Fair CLR 78.3 36.1 22% 78 29.97 0.0
03 10:15 W 16 G 22 10.00 Fair CLR 75.6 37.8 26% 77 29.98 0.0
03 09:55 W 15 G 20 10.00 Fair CLR 72.3 38.8 30% 29.98 0.0
03 09:35 W 14 10.00 Fair CLR 69.4 39.7 34% 29.99 0.0
03 09:15 SW 13 10.00 Fair CLR 66 39.6 38% 29.99 0.0
03 08:30 SW 12 10.00 Fair CLR 60.1 41.2 50% 30 0.0
03 08:15 SW 9 10.00 Fair CLR 56.7 42.3 59% 30 0.0
03 06:50 S 8 10.00 Fair CLR 48.6 40.1 53.2 47.8 73% 45 29.99 0.0
03 06:35 SW 9 10.00 Fair CLR 48.9 40.1 72% 45 29.99 0.0
03 06:15 SW 8 10.00 Fair CLR 49.6 40.1 70% 47 29.99 0.0
03 05:55 S 9 10.00 Fair CLR 50.4 40.1 68% 29.99 0.0
03 05:35 SW 9 10.00 Fair CLR 50.7 40.1 67% 30 0.0
03 05:20 SW 10 10.00 Fair CLR 51.1 39.7 65% 30 0.0
03 04:15 SW 13 10.00 Fair CLR 52.7 39.6 61% 30.02 0.0
03 03:55 SW 12 10.00 Fair CLR 52.9 39.6 61% 30.02 0.0
03 03:10 SW 12 G 16 10.00 Fair CLR 53.1 39.9 61% 30.03 0.0
03 02:55 SW 12 10.00 Fair CLR 53.1 39.9 61% 30.03 0.0
03 02:35 S 12 10.00 Fair CLR 52.2 39.2 61% 30.04 0.0
03 02:15 S 13 10.00 Fair CLR 52.2 39.2 61% 30.04 0.0
03 01:55 S 9 10.00 Fair CLR 48.4 38.3 68% 45 30.05 0.0
03 01:35 S 9 10.00 Fair CLR 48.6 38.3 68% 45 30.05 0.0
03 01:15 S 9 10.00 Fair CLR 47.8 38.3 70% 44 30.06 0.0
03 00:55 S 9 10.00 Fair CLR 49.5 38.3 70.9 48.6 66% 46 30.06 0.0
03 00:35 S 7 10.00 Fair CLR 48.6 38.3 68% 46 30.07 0.0
03 00:15 S 8 10.00 Fair CLR 51.3 38.3 61% 30.07 0.0
02 23:55 S 6 10.00 Fair CLR 57 36.7 47% 30.07 0.0
02 23:35 S 6 10.00 Fair CLR 57.6 36.5 45% 30.07 0.0
02 23:15 S 6 10.00 Fair CLR 58.1 36 44% 30.07 0.0
02 22:55 S 6 10.00 Fair CLR 59 35.8 42% 30.07 0.0
02 22:35 S 6 10.00 Fair CLR 59.5 35.6 41% 30.07 0.0
02 22:15 SE 5 10.00 Fair CLR 59.7 35.6 41% 30.07 0.0
02 21:55 SE 6 10.00 Fair CLR 59.9 35.6 40% 30.07 0.0
02 21:35 SE 6 10.00 Fair CLR 61.7 35.1 37% 30.07 0.0
02 21:15 SE 6 10.00 Fair CLR 61.7 35.2 37% 30.06 0.0
02 20:55 SE 6 10.00 Fair CLR 63.3 35.1 35% 30.06 0.0
02 20:35 SE 5 10.00 Fair CLR 64.8 34 32% 30.06 0.0
02 20:15 SE 5 10.00 Fair CLR 66.2 34.9 31% 30.06 0.0
02 19:55 SE 3 10.00 Fair CLR 67.6 34.5 29% 30.06 0.0
02 19:35 SE 6 10.00 Fair CLR 69.6 32.4 25% 30.06 0.0
02 19:15 Calm 10.00 Fair CLR 70.7 28.8 21% 30.07 0.0
02 18:35 NE 3 10.00 Fair CLR 70.9 29.3 21% 30.07 0.0
02 18:15 NE 3 10.00 Fair CLR 70.7 30 22% 30.08 0.0
02 17:55 Calm 10.00 Fair CLR 70.9 31.1 23% 30.09 0.0
02 17:35 Calm 10.00 Fair CLR 70.5 30.4 23% 30.09 0.0
02 17:15 Calm 10.00 Fair CLR 70.2 29.3 22% 30.09 0.0
02 16:55 NE 3 10.00 Fair CLR 70.9 31.3 23% 30.1 0.0
02 16:35 NE 3 10.00 Fair CLR 70.2 30.6 23% 30.11 0.0
02 16:15 E 3 10.00 Fair CLR 68.7 30.4 24% 30.12 0.0
02 15:55 Calm 10.00 Fair CLR 68 30.4 25% 30.13 0.0
02 15:35 N 3 10.00 Fair CLR 68.4 31.3 25% 30.14 0.0
02 15:15 NE 6 10.00 Fair CLR 67.6 31.3 26% 30.14 0.0
02 14:55 E 3 10.00 Fair CLR 68.2 32.9 27% 30.15 0.0
02 14:35 Calm 10.00 Fair CLR 66.9 32.7 28% 30.16 0.0
02 14:15 Calm 10.00 Fair CLR 66.4 32.5 28% 30.16 0.0
02 13:55 Calm 10.00 Fair CLR 65.3 32 29% 30.18 0.0
02 13:35 Calm 10.00 Fair CLR 64.6 33.3 31% 30.18 0.0
02 13:15 Calm 10.00 Fair CLR 64.2 33.4 32% 30.19 0.0
02 12:55 NE 6 10.00 Fair CLR 62.8 32.2 63.3 43.9 32% 30.19 0.0
02 12:35 E 3 10.00 Fair CLR 62.8 34.5 35% 30.2 0.0
02 12:15 SE 5 10.00 Fair CLR 61.5 33.6 35% 30.2 0.0
02 11:55 E 6 10.00 Fair CLR 61.5 34 36% 30.21 0.0
02 11:35 Calm 10.00 Fair CLR 60.1 33.8 37% 30.21 0.0
02 11:15 E 6 10.00 Fair CLR 59.4 33.6 38% 30.21 0.0
02 10:55 SE 5 10.00 Fair CLR 57.7 32.7 39% 30.21 0.0
02 10:35 E 6 10.00 Fair CLR 57.2 32.7 40% 30.21 0.0
02 10:15 E 6 10.00 Fair CLR 56.1 32.2 40% 30.21 0.0
02 09:55 E 6 10.00 Fair CLR 55 32.2 42% 30.22 0.0
02 09:35 E 7 10.00 Fair CLR 53.8 31.1 42% 30.21 0.0
02 09:15 E 9 10.00 Fair CLR 52.7 30.2 42% 30.21 0.0
02 08:55 E 9 10.00 Fair CLR 51.4 32 48% 30.21 0.0
02 08:35 E 7 10.00 Fair CLR 49.5 34.7 57% 47 30.2 0.0
02 08:15 E 8 10.00 Fair CLR 47.7 37.6 68% 44 30.2 0.0
02 07:55 NE 7 10.00 Fair CLR 45.9 40.1 80% 43 30.19 0.0
02 07:35 NE 3 10.00 Fair CLR 44.8 41 87% 30.18 0.0
02 07:15 Calm 10.00 Fair CLR 44.6 41 87% 30.17 0.0
02 06:15 NE 3 10.00 Partly Cloudy SCT120 45.9 41.9 86% 30.15 0.0
02 05:55 NE 3 10.00 Partly Cloudy SCT110 46.8 41.9 83% 30.15 0.0
02 04:35 Calm 10.00 Mostly Cloudy BKN100 47.7 42.4 82% 30.14 0.0
02 04:20 NE 3 10.00 Mostly Cloudy SCT080 BKN100 47.3 42.1 82% 30.14 0.0
02 03:55 Calm 10.00 Mostly Cloudy SCT090 BKN120 48 41 77% 30.14 0.0
02 03:15 Calm 10.00 Partly Cloudy SCT110 45 40.3 84% 30.13 0.0
02 02:55 Calm 10.00 Partly Cloudy SCT110 44.8 40.8 86% 30.13 0.0
02 02:35 Calm 10.00 Partly Cloudy SCT110 50 40.3 69% 30.12 0.0
02 02:15 Calm 10.00 Fair CLR 50 40.6 70% 30.13 0.0
02 01:55 Calm 10.00 Partly Cloudy SCT075 SCT090 SCT110 50 41 71% 30.13 0.0
02 01:35 Calm 10.00 Partly Cloudy SCT080 SCT110 50.4 41 70% 30.14 0.0
02 01:15 Calm 10.00 Mostly Cloudy BKN080 BKN100 BKN120 50 41.2 72% 30.14 0.0
02 00:55 Calm 10.00 Mostly Cloudy SCT080 BKN110 49.3 41.5 60.3 49.3 75% 30.14 0.0
02 00:35 Calm 10.00 Thunderstorm Light Rain in Vicinity SCT080 BKN100 BKN120 50.7 41.4 70% 30.14 0.0
02 00:15 N 5 10.00 Overcast BKN080 OVC110 52.2 39.7 63% 30.14 0.0
01 23:55 Calm 10.00 Mostly Cloudy BKN100 BKN120 51.4 39.7 64% 30.13 0.0
01 23:35 Calm 10.00 Partly Cloudy SCT090 52 38.3 60% 30.12 0.0
01 23:15 Calm 10.00 Thunderstorm CLR 51.3 38.5 62% 30.12 0.0
01 22:55 Calm 10.00 Fair CLR 52 38.7 61% 30.12 0.0
01 22:35 SE 3 10.00 Fair CLR 52.7 38.5 59% 30.11 0.0
01 22:15 SE 3 10.00 Fair CLR 52.7 39.2 60% 30.11 0.0
01 21:55 E 3 10.00 Fair CLR 53.8 39.2 58% 30.11 0.0
01 21:35 E 5 10.00 Fair CLR 54.7 39.2 56% 30.1 0.0
01 21:15 Calm 10.00 Partly Cloudy SCT090 54.7 39.7 57% 30.1 0.0
01 20:55 E 3 10.00 Mostly Cloudy BKN090 56.5 39 52% 30.09 0.0
01 20:15 E 6 10.00 Mostly Cloudy BKN100 58.3 38.3 48% 30.07 0.0
01 19:55 E 5 10.00 Overcast SCT075 BKN095 OVC120 59.4 38.5 46% 30.07 0.0
01 19:35 E 7 10.00 Overcast SCT075 OVC090 60.3 38.5 45% 30.06 0.0
01 19:15 NE 8 10.00 Overcast OVC090 59.9 38.8 46% 30.06 0.0
01 18:55 NE 10 10.00 Overcast OVC090 60.3 39.4 70 60.3 46% 30.05 0.0
01 18:35 NE 13 10.00 Overcast OVC100 60.3 40.3 48% 30.04 0.0
01 18:15 NE 9 G 14 10.00 Overcast BKN090 OVC120 61.3 40.3 46% 30.04 0.0
01 17:55 N 10 10.00 Mostly Cloudy SCT065 BKN090 67.6 29.5 24% 30.03 0.0
01 17:35 NW 9 10.00 Overcast SCT065 BKN090 OVC110 69.3 30.6 24% 30.03 0.0
01 17:15 NW 10 10.00 Mostly Cloudy BKN090 BKN110 67.8 29.7 24% 30.03 0.0
01 16:55 NW 8 10.00 Mostly Cloudy SCT090 BKN120 67.3 31.1 26% 30.03 0.0
01 16:35 W 7 10.00 Mostly Cloudy SCT090 BKN120 66.9 30.2 25% 30.04 0.0
01 16:15 W 9 10.00 Partly Cloudy SCT090 SCT110 69.4 31.1 24% 30.04 0.0
01 15:55 NW 7 10.00 Partly Cloudy SCT090 SCT110 68.5 31.5 25% 30.05 0.0
01 15:35 Calm 10.00 Mostly Cloudy SCT090 BKN110 68.2 31.8 26% 30.07 0.0
01 15:15 W 6 G 9 10.00 Partly Cloudy SCT080 SCT110 67.8 32 26% 30.08 0.0
01 14:55 Calm 10.00 Overcast SCT070 BKN080 OVC110 66.2 33.3 29% 30.09 0.0
01 14:35 W 6 10.00 Overcast OVC080 64.2 32.2 30% 30.1 0.0
01 14:15 W 6 10.00 Mostly Cloudy SCT065 BKN080 64.2 34 32% 30.1 0.0
01 13:55 Calm 10.00 Mostly Cloudy SCT065 BKN090 65.3 34.5 32% 30.11 0.0
01 13:35 Calm 10.00 Mostly Cloudy SCT065 BKN090 63 33.8 34% 30.11 0.0
01 13:15 Calm 10.00 Overcast SCT065 SCT075 OVC090 63.3 36.3 37% 30.12 0.0
01 12:55 Calm 10.00 Mostly Cloudy SCT075 BKN090 63.9 34.9 65.1 44.8 34% 30.13 0.0
01 12:35 N 3 10.00 Partly Cloudy SCT075 SCT090 65.1 38.1 37% 30.13 0.0
01 12:15 W 6 10.00 Mostly Cloudy SCT065 SCT070 BKN090 64.2 38.5 39% 30.14 0.0
01 11:55 Calm 10.00 Partly Cloudy SCT050 62.4 37 39% 30.14 0.0
01 11:35 W 6 10.00 Partly Cloudy SCT055 63.1 38.3 40% 30.14 0.0
01 11:15 SW 3 10.00 Fair CLR 61.3 37 41% 30.14 0.0
01 10:55 SW 5 10.00 Fair CLR 60.6 37.9 43% 30.14 0.0
01 10:35 SW 5 10.00 Fair CLR 59.5 37.6 44% 30.13 0.0
01 10:15 SW 5 10.00 Fair CLR 57.6 36.9 46% 30.14 0.0
01 09:55 S 3 10.00 Partly Cloudy SCT110 55.6 36.5 49% 30.14 0.0
01 09:35 Calm 10.00 Partly Cloudy SCT110 54 36.9 53% 30.14 0.0
01 09:15 SE 5 10.00 Partly Cloudy SCT110 52.2 36.5 55% 30.14 0.0
01 08:55 SE 6 10.00 Mostly Cloudy BKN110 51.1 36.5 58% 30.14 0.0
01 08:35 E 5 10.00 Overcast OVC110 49.3 37.8 65% 48 30.14 0.0
01 08:15 SE 3 10.00 Overcast OVC110 48 38.1 69% 30.14 0.0
01 07:55 Calm 10.00 Overcast OVC110 46.4 37.9 72% 30.14 0.0
01 07:40 Calm 10.00 Mostly Cloudy BKN110 45.7 37.8 74% 30.14 0.0
01 06:55 E 3 10.00 Overcast OVC110 44.8 37.4 46.8 43.2 75% 30.12 0.0
01 06:35 Calm 10.00 Overcast OVC110 44.6 37.4 76% 30.12 0.0
01 06:15 E 3 10.00 Overcast OVC110 44.8 37 74% 30.12 0.0
01 05:55 E 3 10.00 Overcast OVC100 44.8 37.4 75% 30.12 0.0
01 05:35 E 3 10.00 Overcast OVC100 44.1 37.4 78% 30.13 0.0
01 05:20 E 5 10.00 Overcast OVC100 43.9 37.6 79% 42 30.13 0.0
01 04:30 NE 5 10.00 Partly Cloudy SCT100 44.2 38.5 80% 42 30.13 0.0
01 04:15 NE 5 10.00 Partly Cloudy SCT100 44.8 38.7 79% 43 30.14 0.0
01 03:55 NE 5 10.00 Fair CLR 45.5 38.7 77% 44 30.13 0.0
01 03:35 NE 6 10.00 Fair CLR 45.7 39.6 79% 43 30.13 0.0
Date Time (cdt) Wind (mph) Vis. (mi.) Weather Sky Cond. Air Dwpt Max. Min. Relative Humidity Wind Chill (°F) Heat Index (°F) altimeter (in) sea level (mb) 1 hr 3 hr 6 hr
6 hour
Temperature (ºF) Pressure Precipitation (in)